createdAt,value
2018-09-26T00:01:57.417Z,1.30
2018-09-26T00:06:59.996Z,1.00
2018-09-26T00:12:02.523Z,1.40
2018-09-26T00:17:05.184Z,1.60
2018-09-26T00:22:07.735Z,2.17
2018-09-26T00:27:10.280Z,1.03
2018-09-26T00:32:12.832Z,1.40
2018-09-26T00:37:15.339Z,1.07
2018-09-26T00:42:17.884Z,1.40
2018-09-26T00:47:20.472Z,1.00
2018-09-26T00:52:23.027Z,1.20
2018-09-26T00:57:25.536Z,1.53
2018-09-26T01:02:28.047Z,0.97
2018-09-26T01:07:30.555Z,1.40
2018-09-26T01:12:33.151Z,1.27
2018-09-26T01:17:35.660Z,1.30
2018-09-26T01:22:38.228Z,1.07
2018-09-26T01:27:40.755Z,1.10
2018-09-26T01:32:43.335Z,1.00
2018-09-26T01:37:45.855Z,1.43
2018-09-26T01:42:48.425Z,1.10
2018-09-26T01:47:50.951Z,1.10
2018-09-26T01:52:53.453Z,1.13
2018-09-26T01:57:56.020Z,1.67
2018-09-26T02:02:58.562Z,1.07
2018-09-26T02:08:01.080Z,1.30
2018-09-26T02:13:03.604Z,1.27
2018-09-26T02:18:06.135Z,1.10
2018-09-26T02:23:08.662Z,1.13
2018-09-26T02:28:11.167Z,1.13
2018-09-26T02:33:15.076Z,1.13
2018-09-26T02:38:17.873Z,0.97
2018-09-26T02:43:20.481Z,1.40
2018-09-26T02:48:28.692Z,1.40
2018-09-26T02:53:31.227Z,1.43
2018-09-26T02:58:33.759Z,0.97
2018-09-26T03:03:36.335Z,1.00
2018-09-26T03:08:38.933Z,1.10
2018-09-26T03:13:41.470Z,1.17
2018-09-26T03:18:43.976Z,1.00
2018-09-26T03:23:46.513Z,1.47
2018-09-26T03:28:49.095Z,1.03
2018-09-26T03:33:51.645Z,1.60
2018-09-26T03:38:54.139Z,1.50
2018-09-26T03:43:56.664Z,1.07
2018-09-26T03:48:59.213Z,1.53
2018-09-26T03:54:01.735Z,0.87
2018-09-26T03:59:04.304Z,1.37
2018-09-26T04:04:06.909Z,1.40
2018-09-26T04:09:09.480Z,1.83
2018-09-26T04:14:12.074Z,1.47
2018-09-26T04:19:14.614Z,1.60
2018-09-26T04:24:17.116Z,1.10
2018-09-26T04:29:19.637Z,1.27
2018-09-26T04:34:22.167Z,1.30
2018-09-26T04:39:24.698Z,2.10
2018-09-26T04:44:27.229Z,3.67
2018-09-26T04:49:29.759Z,7.37
2018-09-26T04:54:32.274Z,5.20
2018-09-26T04:59:34.815Z,3.70
2018-09-26T05:04:37.823Z,3.40
2018-09-26T05:09:40.473Z,3.30
2018-09-26T05:14:43.096Z,2.93
2018-09-26T05:19:45.596Z,2.80
2018-09-26T05:24:48.126Z,3.83
2018-09-26T05:29:50.670Z,3.30
2018-09-26T05:34:53.173Z,3.53
2018-09-26T05:39:55.708Z,3.73
2018-09-26T05:44:58.233Z,3.07
2018-09-26T05:50:00.791Z,2.57
2018-09-26T05:55:03.396Z,3.77
2018-09-26T06:00:05.983Z,3.60
2018-09-26T06:05:08.591Z,3.60
2018-09-26T06:10:11.136Z,4.07
2018-09-26T06:15:13.656Z,2.80
2018-09-26T06:20:16.172Z,4.27
2018-09-26T06:25:18.691Z,3.60
2018-09-26T06:30:21.245Z,3.93
2018-09-26T06:35:23.757Z,4.17
2018-09-26T06:40:27.005Z,4.13
2018-09-26T06:45:29.503Z,4.10
2018-09-26T06:50:32.068Z,2.80
2018-09-26T06:55:34.584Z,4.57
2018-09-26T07:00:37.750Z,3.00
2018-09-26T07:05:40.260Z,3.50
2018-09-26T07:10:42.796Z,4.20
2018-09-26T07:15:45.335Z,3.30
2018-09-26T07:20:47.864Z,4.00
2018-09-26T07:25:50.387Z,3.97
2018-09-26T07:30:52.899Z,3.20
2018-09-26T07:35:55.421Z,3.10
2018-09-26T07:40:57.936Z,2.67
2018-09-26T07:46:00.488Z,2.93
2018-09-26T07:51:03.057Z,2.90
2018-09-26T07:56:05.703Z,2.37
2018-09-26T08:01:08.247Z,2.63
2018-09-26T08:06:10.779Z,2.37
2018-09-26T08:11:13.340Z,2.43
2018-09-26T08:16:15.851Z,2.17
2018-09-26T08:21:19.098Z,1.90
2018-09-26T08:26:21.620Z,2.23
2018-09-26T08:31:24.167Z,2.23
2018-09-26T08:36:26.712Z,2.00
2018-09-26T08:41:29.249Z,2.33
2018-09-26T08:46:31.765Z,2.00
2018-09-26T08:51:34.291Z,1.60
2018-09-26T08:56:36.899Z,1.73
2018-09-26T09:01:44.862Z,2.10
2018-09-26T09:06:47.391Z,2.07
2018-09-26T09:11:49.919Z,2.27
2018-09-26T09:16:52.494Z,2.30
2018-09-26T09:21:55.060Z,3.00
2018-09-26T09:26:57.603Z,2.47
2018-09-26T09:32:00.379Z,2.07
2018-09-26T09:37:02.985Z,2.30
2018-09-26T09:42:05.787Z,2.53
2018-09-26T09:47:08.334Z,2.43
2018-09-26T09:52:10.868Z,2.47
2018-09-26T09:57:13.396Z,2.33
2018-09-26T10:02:16.023Z,2.43
2018-09-26T10:07:18.551Z,1.90
2018-09-26T10:12:21.063Z,2.30
2018-09-26T10:17:23.577Z,2.10
2018-09-26T10:22:26.040Z,2.10
2018-09-26T10:27:28.582Z,2.07
2018-09-26T10:32:31.066Z,1.90
2018-09-26T10:37:33.561Z,1.87
2018-09-26T10:42:38.864Z,2.00
2018-09-26T10:47:41.376Z,2.20
2018-09-26T10:52:43.867Z,2.30
2018-09-26T10:57:46.361Z,2.37
2018-09-26T11:02:48.868Z,2.13
2018-09-26T11:07:51.380Z,2.27
2018-09-26T11:12:53.887Z,1.77
2018-09-26T11:17:56.372Z,1.90
2018-09-26T11:22:58.852Z,2.23
2018-09-26T11:28:01.345Z,2.00
2018-09-26T11:33:03.845Z,1.97
2018-09-26T11:38:06.360Z,1.90
2018-09-26T11:43:09.696Z,2.30
2018-09-26T11:48:12.199Z,2.13
2018-09-26T11:53:14.674Z,1.63
2018-09-26T11:58:17.285Z,1.73
2018-09-26T12:03:19.724Z,2.23
2018-09-26T12:08:22.226Z,2.03
2018-09-26T12:13:24.772Z,2.00
2018-09-26T12:18:27.319Z,2.33
2018-09-26T12:23:29.744Z,2.00
2018-09-26T12:28:32.408Z,1.93
2018-09-26T12:33:34.911Z,1.92
2018-09-26T12:38:37.394Z,1.72
2018-09-26T12:43:39.977Z,2.08
2018-09-26T12:48:43.221Z,1.72
2018-09-26T12:53:45.803Z,1.60
2018-09-26T12:58:48.222Z,2.10
2018-09-26T13:03:50.687Z,2.10
2018-09-26T13:08:53.224Z,2.10
2018-09-26T13:13:55.744Z,2.10
2018-09-26T13:18:58.309Z,1.95
2018-09-26T13:24:00.756Z,2.00
2018-09-26T13:29:03.301Z,2.30
2018-09-26T13:34:05.835Z,2.08
2018-09-26T13:39:08.638Z,2.05
2018-09-26T13:44:11.122Z,2.10
2018-09-26T13:49:13.591Z,1.90
2018-09-26T13:54:16.130Z,1.90
2018-09-26T13:59:18.592Z,2.12
2018-09-26T14:04:21.161Z,2.30
2018-09-26T14:09:23.667Z,2.98
2018-09-26T14:14:26.261Z,1.80
2018-09-26T14:19:29.316Z,2.00
2018-09-26T14:24:31.837Z,2.17
2018-09-26T14:29:36.609Z,2.33
2018-09-26T14:34:39.992Z,2.60
2018-09-26T14:39:42.534Z,2.20
2018-09-26T14:44:45.104Z,2.50
2018-09-26T14:49:47.599Z,2.90
2018-09-26T14:54:50.104Z,2.57
2018-09-26T14:59:52.555Z,2.60
2018-09-26T15:04:55.033Z,2.37
2018-09-26T15:09:57.496Z,2.30
2018-09-26T15:14:59.972Z,2.20
2018-09-26T15:20:02.549Z,1.90
2018-09-26T15:25:05.113Z,2.20
2018-09-26T15:30:07.889Z,2.30
2018-09-26T15:35:10.399Z,2.23
2018-09-26T15:40:13.002Z,2.00
2018-09-26T15:45:16.374Z,2.10
2018-09-26T15:50:18.933Z,3.47
2018-09-26T15:55:21.394Z,2.70
2018-09-26T16:00:23.964Z,2.33
2018-09-26T16:05:26.408Z,1.77
2018-09-26T16:10:28.955Z,1.50
2018-09-26T16:15:31.495Z,1.90
2018-09-26T16:20:33.986Z,1.70
2018-09-26T16:25:36.637Z,1.80
2018-09-26T16:30:39.060Z,2.23
2018-09-26T16:35:41.599Z,2.62
2018-09-26T16:40:44.147Z,2.57
2018-09-26T16:45:46.666Z,2.30
2018-09-26T16:50:49.507Z,2.00
2018-09-26T16:55:52.105Z,2.20
2018-09-26T17:00:54.628Z,1.80
2018-09-26T17:05:57.187Z,2.10
2018-09-26T17:10:59.703Z,2.27
2018-09-26T17:16:02.235Z,2.67
2018-09-26T17:21:04.804Z,2.53
2018-09-26T17:26:07.923Z,2.60
2018-09-26T17:31:10.420Z,2.50
2018-09-26T17:36:12.986Z,2.37
2018-09-26T17:41:15.534Z,2.47
2018-09-26T17:46:18.152Z,2.40
2018-09-26T17:51:21.622Z,2.40
2018-09-26T17:56:25.446Z,4.97
2018-09-26T18:01:28.049Z,2.70
2018-09-26T18:06:31.409Z,3.50
2018-09-26T18:11:33.886Z,3.60
2018-09-26T18:16:37.108Z,3.13
2018-09-26T18:21:39.682Z,2.60
2018-09-26T18:26:42.238Z,2.23
2018-09-26T18:31:44.772Z,2.50
2018-09-26T18:36:47.297Z,2.47
2018-09-26T18:41:49.878Z,2.33
2018-09-26T18:46:52.491Z,2.37
2018-09-26T18:51:55.032Z,2.60
2018-09-26T18:56:57.568Z,2.50
2018-09-26T19:02:00.089Z,2.40
2018-09-26T19:07:02.766Z,3.00
2018-09-26T19:12:05.324Z,2.55
2018-09-26T19:17:07.860Z,2.60
2018-09-26T19:22:10.391Z,2.93
2018-09-26T19:27:13.002Z,2.23
2018-09-26T19:32:15.512Z,2.40
2018-09-26T19:37:18.129Z,2.43
2018-09-26T19:42:20.713Z,2.17
2018-09-26T19:47:23.272Z,2.47
2018-09-26T19:52:26.055Z,4.03
2018-09-26T19:57:28.559Z,4.00
2018-09-26T20:02:31.183Z,2.70
2018-09-26T20:07:33.755Z,4.57
2018-09-26T20:12:36.298Z,4.60
2018-09-26T20:17:38.847Z,3.43
2018-09-26T20:22:41.353Z,2.40
2018-09-26T20:27:43.922Z,3.10
2018-09-26T20:32:46.442Z,3.37
2018-09-26T20:37:48.964Z,3.13
2018-09-26T20:42:51.677Z,2.77
2018-09-26T20:47:54.180Z,3.60
2018-09-26T20:52:56.691Z,3.20
2018-09-26T20:57:59.227Z,3.97
2018-09-26T21:03:01.840Z,3.63
2018-09-26T21:08:04.361Z,3.20
2018-09-26T21:13:07.069Z,3.73
2018-09-26T21:18:09.565Z,2.90
2018-09-26T21:23:12.110Z,3.20
2018-09-26T21:28:14.580Z,3.17
2018-09-26T21:33:17.093Z,3.20
2018-09-26T21:38:19.609Z,3.27
2018-09-26T21:43:22.090Z,3.43
2018-09-26T21:48:24.592Z,4.43
2018-09-26T21:53:27.138Z,3.70
2018-09-26T21:58:29.627Z,3.50
2018-09-26T22:03:32.839Z,3.60
2018-09-26T22:08:35.532Z,3.53
2018-09-26T22:13:38.158Z,3.17
2018-09-26T22:18:40.776Z,3.33
2018-09-26T22:23:43.422Z,3.10
2018-09-26T22:28:46.028Z,3.00
2018-09-26T22:33:48.641Z,3.23
2018-09-26T22:38:51.288Z,3.37
2018-09-26T22:43:53.956Z,2.83
2018-09-26T22:48:56.665Z,2.10
2018-09-26T22:53:59.295Z,2.40
2018-09-26T22:59:01.910Z,2.60
2018-09-26T23:04:04.528Z,2.97
2018-09-26T23:09:08.543Z,3.03
2018-09-26T23:14:11.190Z,2.70
2018-09-26T23:19:13.787Z,3.00
2018-09-26T23:24:16.411Z,3.47
2018-09-26T23:29:19.015Z,3.37
2018-09-26T23:34:21.629Z,3.27
2018-09-26T23:39:24.131Z,3.60
2018-09-26T23:44:26.733Z,3.47
2018-09-26T23:49:29.386Z,3.90
2018-09-26T23:54:32.062Z,3.67
2018-09-26T23:59:34.721Z,3.23
